< < Back
Terminal Aerodrome Forecast


Current Version              Previous Versions:   1  2  3  4  5  6  7  8  9  

Terminal Aerodrome Forecast

345
FTUS42 KILM 171120
TAFILM
TAF
KILM 171120Z 1712/1812 05006KT P6SM VCSH SCT008 BKN024 OVC030
     FM171400 04007KT P6SM BKN015 OVC035
     FM171800 03006KT P6SM SCT020 SCT050 BKN180
     FM180400 VRB04KT 5SM -SHRA BKN016=



Latest METAR

808
SAUS70 KWBC 180500 RRH
MTRILM
METAR KILM 180453Z AUTO 00000KT 10SM -RA BKN110 19/18 A3000 RMK AO2
SLP157 P0000 T01940183 402500183


USA.gov is the U.S. government's official web portal to all federal, state and local government web resources and services.